Last 7 Days

Middletown-South

Hourly Data | America/Los_Angeles
as of 6/30/22 4:24 AM PDT
Date & Time Temp (°F) RH (%) Dew Pt (°F) Wet Bulb (°F) Wind Dir (°) Wind Spd (mph) Wind Gust (mph) Leaf Wet (mins) BatVolt (V) Latest Rain (In) Daily Rain (In) Daily Min Temp (°F) Daily Max Temp (°F) Daily Max Wind (mph) Daily Leaf Wet Hrs (hrs)
6/30/22 - 0400 52.9 84 48.2 51.0 SSW | 197 0.9 2.0 0.0 12.6 0.00 0.00 52.1 57.2 2.5 0.0
6/30/22 - 0300 54.4 81 48.8 52.0 SSW | 206 0.5 1.9 0.0 12.6 0.00 0.00 53.4 57.2 2.5 0.0
6/30/22 - 0200 56.4 77 49.2 53.1 SSW | 208 1.0 2.5 0.0 12.6 0.00 0.00 55.4 57.2 2.5 0.0
6/30/22 - 0100 58.4 73 49.8 54.3 SSW | 208 0.6 2.0 0.0 12.6 0.00 0.00 47.5 91.9 21.8 0.0
6/30/22 - 0000 61.2 67 50.0 55.4 SSW | 195 1.0 2.4 0.0 12.6 0.00 0.00 47.5 91.9 21.8 0.0
6/29/22 - 2300 64.4 60 50.2 56.6 SSW | 199 1.2 3.9 0.0 12.7 0.00 0.00 47.5 91.9 21.8 0.0
6/29/22 - 2200 69.6 50 49.9 58.0 S | 186 1.6 4.4 0.0 12.7 0.00 0.00 47.5 91.9 21.8 0.0
6/29/22 - 2100 75.2 40 49.3 59.2 SSE | 160 1.6 7.8 0.0 12.8 0.00 0.00 47.5 91.9 21.8 0.0
6/29/22 - 2000 80.4 34 49.1 60.3 SSE | 148 2.5 14.1 0.0 12.9 0.00 0.00 47.5 91.9 21.8 0.0
6/29/22 - 1900 82.5 28 46.5 59.5 SSW | 213 5.2 13.8 0.0 12.9 0.00 0.00 47.5 91.9 21.8 0.0
6/29/22 - 1800 82.5 29 46.9 59.6 SW | 230 7.6 21.8 0.0 12.9 0.00 0.00 47.5 91.9 21.8 0.0
6/29/22 - 1700 83.5 29 48.3 60.5 SW | 235 8.3 20.2 0.0 12.9 0.00 0.00 47.5 91.9 20.2 0.0
6/29/22 - 1600 85.1 30 50.2 61.7 WSW | 249 7.0 17.4 0.0 12.8 0.00 0.00 47.5 91.9 17.4 0.0
6/29/22 - 1500 87.5 27 49.3 61.7 WSW | 242 5.5 14.7 0.0 12.8 0.00 0.00 47.5 91.9 14.7 0.0
6/29/22 - 1400 90.6 21 44.9 60.4 SSW | 205 2.7 11.6 0.0 12.8 0.00 0.00 47.5 91.9 11.6 0.0
6/29/22 - 1300 89.5 16 37.6 57.5 ENE | 57 3.1 8.7 0.0 12.8 0.00 0.00 47.5 90.7 9.2 0.0
6/29/22 - 1200 87.8 19 40.5 58.1 ENE | 66 2.4 7.9 0.0 12.8 0.00 0.00 47.5 89.3 9.2 0.0
6/29/22 - 1100 84.4 21 40.7 57.5 E | 87 2.9 9.2 0.0 12.9 0.00 0.00 47.5 87.0 9.2 0.0
6/29/22 - 1000 80.3 25 40.9 56.6 SE | 127 1.6 7.6 0.0 12.9 0.00 0.00 47.5 83.0 7.6 0.0
6/29/22 - 0900 73.2 30 40.0 54.3 ESE | 113 0.7 3.1 0.0 13.0 0.00 0.00 47.5 76.6 4.3 0.0
6/29/22 - 0800 63.5 41 38.8 50.5 NE | 39 0.3 2.4 0.0 13.2 0.00 0.00 47.5 71.3 4.3 0.0
6/29/22 - 0700 50.7 63 38.7 45.1 SSW | 196 0.7 2.1 0.0 13.0 0.00 0.00 47.5 56.6 4.3 0.0
6/29/22 - 0600 48.1 68 37.8 43.5 SSW | 203 1.4 2.3 0.0 12.6 0.00 0.00 47.5 54.6 4.3 0.0
6/29/22 - 0500 48.6 66 37.7 43.7 S | 187 1.1 2.1 0.0 12.6 0.00 0.00 48.1 54.6 4.3 0.0
6/29/22 - 0400 49.8 62 37.4 44.1 SSW | 203 1.3 2.6 0.0 12.6 0.00 0.00 48.9 54.6 4.3 0.0
6/29/22 - 0300 51.0 60 37.5 44.8 SSW | 211 1.6 2.8 0.0 12.6 0.00 0.00 50.3 54.6 4.3 0.0
6/29/22 - 0200 53.1 58 38.7 46.2 SSW | 207 1.2 4.3 0.0 12.6 0.00 0.00 51.8 54.6 4.3 0.0
6/29/22 - 0100 55.6 54 39.0 47.5 SSW | 195 1.7 3.8 0.0 12.6 0.00 0.00 54.2 92.7 17.8 0.0
6/29/22 - 0000 58.3 52 40.7 49.4 S | 185 1.1 3.4 0.0 12.6 0.00 0.00 54.3 92.7 17.8 0.0
6/28/22 - 2300 62.5 48 42.5 51.9 S | 186 1.3 3.9 0.0 12.6 0.00 0.00 54.3 92.7 17.8 0.0
6/28/22 - 2200 70.6 36 42.6 54.6 S | 175 1.7 5.7 0.0 12.7 0.00 0.00 54.3 92.7 17.8 0.0
6/28/22 - 2100 76.7 31 44.1 57.0 S | 178 2.7 9.4 0.0 12.7 0.00 0.00 54.3 92.7 17.8 0.0
6/28/22 - 2000 82.3 27 45.1 58.8 SSW | 213 4.6 14.2 0.0 12.8 0.00 0.00 54.3 92.7 17.8 0.0
6/28/22 - 1900 85.9 24 44.8 59.4 SW | 236 5.1 14.0 0.0 12.8 0.00 0.00 54.3 92.7 17.8 0.0
6/28/22 - 1800 88.5 23 46.5 60.6 WSW | 239 4.2 12.0 0.0 12.8 0.00 0.00 54.3 92.7 17.8 0.0
6/28/22 - 1700 89.6 22 45.0 60.2 SW | 231 5.5 17.2 0.0 12.8 0.00 0.00 54.3 92.7 17.8 0.0
6/28/22 - 1600 90.4 15 36.0 57.1 WSW | 244 6.2 17.8 0.0 12.8 0.00 0.00 54.3 92.7 17.8 0.0
6/28/22 - 1500 90.1 18 40.2 58.5 WSW | 243 4.8 16.3 0.0 12.8 0.00 0.00 54.3 92.7 16.3 0.0
6/28/22 - 1400 89.0 20 42.9 59.2 SW | 214 5.0 14.8 0.0 12.8 0.00 0.00 54.3 92.7 15.9 0.0
6/28/22 - 1300 88.7 17 39.0 57.8 SSW | 213 6.4 15.9 0.0 12.8 0.00 0.00 54.3 92.7 15.9 0.0
6/28/22 - 1200 90.8 13 32.8 56.4 SW | 226 4.3 11.8 0.0 12.8 0.00 0.00 54.3 92.7 12.3 0.0
6/28/22 - 1100 91.5 11 28.5 55.5 E | 100 2.1 12.3 0.0 12.8 0.00 0.00 54.3 92.7 12.3 0.0
6/28/22 - 1000 87.2 16 35.3 56.3 NE | 39 1.3 4.6 0.0 12.9 0.00 0.00 54.3 89.6 4.8 0.0
6/28/22 - 0900 80.0 25 40.6 56.4 NNW | 328 0.3 2.4 0.0 13.0 0.00 0.00 54.3 85.5 4.8 0.0
6/28/22 - 0800 69.2 39 43.0 54.3 ENE | 71 0.6 3.6 0.0 13.1 0.00 0.00 54.3 76.7 4.8 0.0
6/28/22 - 0700 57.2 52 40.0 48.6 SSE | 167 1.3 4.6 0.0 12.9 0.00 0.00 54.3 62.6 4.8 0.0
6/28/22 - 0600 54.7 54 38.4 46.8 S | 177 1.3 4.3 0.0 12.6 0.00 0.00 54.3 62.6 4.8 0.0
6/28/22 - 0500 55.8 49 37.0 46.8 S | 191 1.2 3.9 0.0 12.6 0.00 0.00 54.7 62.6 4.8 0.0
6/28/22 - 0400 56.6 47 36.6 46.9 S | 186 1.1 4.3 0.0 12.6 0.00 0.00 55.8 62.6 4.8 0.0
6/28/22 - 0300 59.0 42 36.0 47.7 SSW | 205 1.0 4.8 0.0 12.6 0.00 0.00 57.1 62.6 4.8 0.0
6/28/22 - 0200 60.9 38 34.9 48.0 SSW | 200 1.6 4.7 0.0 12.6 0.00 0.00 59.4 62.6 4.7 0.0
6/28/22 - 0100 63.6 34 35.0 49.1 S | 191 1.8 4.2 0.0 12.6 0.00 0.00 48.3 96.0 20.5 0.0
6/28/22 - 0000 66.1 32 35.8 50.3 S | 184 1.9 4.7 0.0 12.6 0.00 0.00 48.3 96.0 20.5 0.0
6/27/22 - 2300 73.1 27 36.1 52.9 SE | 139 1.7 6.7 0.0 12.6 0.00 0.00 48.3 96.0 20.5 0.0
6/27/22 - 2200 78.1 23 35.8 54.4 SSW | 200 3.6 10.5 0.0 12.7 0.00 0.00 48.3 96.0 20.5 0.0
6/27/22 - 2100 81.7 32 48.5 60.4 SSW | 201 3.1 9.3 0.0 12.7 0.00 0.00 48.3 96.0 20.5 0.0
6/27/22 - 2000 86.3 28 49.6 61.6 SW | 229 5.4 13.5 0.0 12.8 0.00 0.00 48.3 96.0 20.5 0.0
6/27/22 - 1900 88.5 27 50.4 62.4 WSW | 238 6.8 18.4 0.0 12.8 0.00 0.00 48.3 96.0 20.5 0.0
6/27/22 - 1800 90.1 27 51.3 63.0 WSW | 242 6.2 16.4 0.0 12.8 0.00 0.00 48.3 96.0 20.5 0.0
6/27/22 - 1700 92.1 22 48.0 61.8 SW | 214 4.7 17.0 0.0 12.8 0.00 0.00 48.3 96.0 20.5 0.0
6/27/22 - 1600 91.8 20 45.1 60.5 SW | 221 8.1 18.6 0.0 12.8 0.00 0.00 48.3 96.0 20.5 0.0
6/27/22 - 1500 91.7 21 46.2 60.9 SW | 218 7.6 18.0 0.0 12.8 0.00 0.00 48.3 96.0 20.5 0.0
6/27/22 - 1400 92.1 19 43.8 60.1 SW | 226 7.2 19.4 0.0 12.8 0.00 0.00 48.3 96.0 20.5 0.0
6/27/22 - 1300 92.3 18 42.0 59.4 SW | 217 6.8 20.5 0.0 12.8 0.00 0.00 48.3 96.0 20.5 0.0
6/27/22 - 1200 93.9 16 41.4 59.5 SE | 132 2.4 11.2 0.0 12.8 0.00 0.00 48.3 96.0 11.2 0.0
6/27/22 - 1100 90.6 18 40.9 58.8 NE | 54 1.3 5.4 0.0 12.8 0.00 0.00 48.3 92.8 5.4 0.0
6/27/22 - 1000 83.3 21 39.1 56.6 NNW | 333 0.7 3.0 0.0 12.9 0.00 0.00 48.3 87.6 3.3 0.0
6/27/22 - 0900 76.4 26 39.2 54.9 NNE | 18 0.7 3.3 0.0 13.0 0.00 0.00 48.3 79.5 3.3 0.0
6/27/22 - 0800 66.1 38 39.4 51.7 NE | 47 0.1 1.9 0.0 13.1 0.00 0.00 48.3 73.8 3.2 0.0
6/27/22 - 0700 52.5 59 38.6 45.9 SSE | 152 0.5 2.4 0.0 13.0 0.00 0.00 48.3 57.9 3.2 0.0
6/27/22 - 0600 49.3 67 38.7 44.5 S | 174 0.5 2.7 0.0 12.6 0.00 0.00 48.3 57.2 3.2 0.0
6/27/22 - 0500 50.5 64 38.8 45.1 S | 187 1.1 2.4 0.0 12.6 0.00 0.00 49.6 57.2 3.2 0.0
6/27/22 - 0400 52.1 63 40.0 46.4 SSW | 208 1.1 3.0 0.0 12.6 0.00 0.00 50.6 57.2 3.2 0.0
6/27/22 - 0300 53.6 62 40.9 47.5 SSW | 199 1.2 2.6 0.0 12.6 0.00 0.00 52.7 57.2 3.2 0.0
6/27/22 - 0200 55.8 58 41.4 48.8 SSW | 206 1.3 3.2 0.0 12.6 0.00 0.00 54.7 57.2 3.2 0.0
6/27/22 - 0100 57.9 56 42.1 49.9 SSW | 205 1.6 3.0 0.0 12.6 0.00 0.00 50.1 94.7 17.6 0.0
6/27/22 - 0000 60.1 52 42.6 51.0 SSW | 208 1.5 3.0 0.0 12.6 0.00 0.00 50.1 94.7 17.6 0.0
6/26/22 - 2300 63.6 49 44.0 53.0 SSW | 205 1.6 3.0 0.0 12.6 0.00 0.00 50.1 94.7 17.6 0.0
6/26/22 - 2200 69.6 41 45.1 55.5 SSW | 208 1.8 3.9 0.0 12.7 0.00 0.00 50.1 94.7 17.6 0.0
6/26/22 - 2100 79.0 28 43.2 57.2 SSE | 168 1.9 6.5 0.0 12.7 0.00 0.00 50.1 94.7 17.6 0.0
6/26/22 - 2000 86.2 19 39.1 57.3 S | 179 2.7 11.1 0.0 12.8 0.00 0.00 50.1 94.7 17.6 0.0
6/26/22 - 1900 87.8 16 36.8 56.8 SW | 214 5.7 15.6 0.0 12.9 0.00 0.00 50.1 94.7 17.6 0.0
6/26/22 - 1800 88.9 16 36.8 57.0 SW | 236 6.0 15.7 0.0 12.8 0.00 0.00 50.1 94.7 17.6 0.0
6/26/22 - 1700 90.5 15 36.1 57.2 SW | 235 5.1 14.9 0.0 12.8 0.00 0.00 50.1 94.7 17.6 0.0
6/26/22 - 1600 91.7 13 33.6 56.7 SW | 234 4.0 12.1 0.0 12.8 0.00 0.00 50.1 94.7 17.6 0.0
6/26/22 - 1500 91.1 14 35.9 57.2 SW | 236 5.4 15.9 0.0 12.8 0.00 0.00 50.1 94.7 17.6 0.0
6/26/22 - 1400 91.9 17 41.3 59.1 WSW | 242 5.8 17.6 0.0 12.8 0.00 0.00 50.1 94.7 17.6 0.0
6/26/22 - 1300 93.2 17 42.7 59.8 WSW | 258 4.5 11.6 0.0 12.8 0.00 0.00 50.1 94.7 11.6 0.0
6/26/22 - 1200 92.8 18 43.2 60.0 NE | 43 2.3 7.7 0.0 12.8 0.00 0.00 50.1 94.6 7.7 0.0
6/26/22 - 1100 89.7 19 42.2 59.1 NE | 43 1.5 5.4 0.0 12.8 0.00 0.00 50.1 91.7 5.4 0.0
6/26/22 - 1000 84.0 22 40.5 57.3 NNE | 13 0.8 3.4 0.0 12.9 0.00 0.00 50.1 87.6 3.4 0.0
6/26/22 - 0900 77.2 27 40.4 55.6 NE | 56 0.7 3.3 0.0 13.0 0.00 0.00 50.1 81.0 3.3 0.0
6/26/22 - 0800 67.0 38 40.4 52.4 NNE | 21 0.5 2.2 0.0 13.1 0.00 0.00 50.1 71.8 2.7 0.0
6/26/22 - 0700 53.9 55 38.3 46.4 S | 190 0.7 2.2 0.0 13.0 0.00 0.00 50.1 59.6 2.7 0.0
6/26/22 - 0600 50.7 59 37.2 44.5 S | 171 0.8 2.0 0.0 12.6 0.00 0.00 50.1 56.8 2.7 0.0
6/26/22 - 0500 51.7 57 36.8 44.8 SSW | 199 1.1 2.4 0.0 12.6 0.00 0.00 51.0 56.8 2.7 0.0
6/26/22 - 0400 52.6 53 36.1 45.0 SSW | 203 1.5 2.5 0.0 12.6 0.00 0.00 52.0 56.8 2.7 0.0
6/26/22 - 0300 54.0 50 35.6 45.4 SSW | 200 1.3 2.7 0.0 12.6 0.00 0.00 53.2 56.8 2.7 0.0
6/26/22 - 0200 55.3 48 35.9 46.1 S | 174 0.8 2.5 0.0 12.6 0.00 0.00 53.9 56.8 2.5 0.0
6/26/22 - 0100 57.6 43 35.1 46.8 SW | 215 1.5 4.6 0.0 12.6 0.00 0.00 52.6 97.4 20.6 0.0
6/26/22 - 0000 60.1 39 34.7 47.6 SSW | 211 1.5 4.2 0.0 12.6 0.00 0.00 52.6 97.4 20.6 0.0
6/25/22 - 2300 63.8 33 34.4 49.0 SSW | 208 1.5 5.8 0.0 12.6 0.00 0.00 52.6 97.4 20.6 0.0
6/25/22 - 2200 69.6 30 36.8 51.9 SSW | 201 2.4 5.5 0.0 12.7 0.00 0.00 52.6 97.4 20.6 0.0
6/25/22 - 2100 75.9 26 38.4 54.5 S | 177 1.8 4.8 0.0 12.7 0.00 0.00 52.6 97.4 20.6 0.0
6/25/22 - 2000 84.2 19 37.2 56.3 SSW | 201 2.1 10.5 0.0 12.8 0.00 0.00 52.6 97.4 20.6 0.0
6/25/22 - 1900 85.8 18 37.6 56.7 WSW | 251 3.0 8.7 0.0 12.9 0.00 0.00 52.6 97.4 20.6 0.0
6/25/22 - 1800 86.0 20 40.4 57.7 W | 262 5.4 20.6 0.0 12.8 0.00 0.00 52.6 97.4 20.6 0.0
6/25/22 - 1700 87.0 23 44.7 59.6 WSW | 253 7.1 18.4 0.0 12.8 0.00 0.00 52.6 97.4 18.4 0.0
6/25/22 - 1600 89.3 25 49.2 61.9 WSW | 244 6.5 17.9 0.0 12.8 0.00 0.00 52.6 97.4 17.9 0.0
6/25/22 - 1500 92.9 21 46.3 61.3 WSW | 239 5.3 15.2 0.0 12.8 0.00 0.00 52.6 97.4 15.2 0.0
6/25/22 - 1400 95.5 18 45.1 61.1 S | 169 2.9 12.6 0.0 12.8 0.00 0.00 52.6 97.4 12.6 0.0
6/25/22 - 1300 94.0 19 45.6 61.1 E | 96 3.4 11.1 0.0 12.8 0.00 0.00 52.6 96.3 11.1 0.0
6/25/22 - 1200 92.0 22 48.1 61.8 ENE | 63 4.2 11.1 0.0 12.8 0.00 0.00 52.6 93.2 11.1 0.0
6/25/22 - 1100 90.0 23 47.6 61.3 ENE | 59 2.5 7.8 0.0 12.8 0.00 0.00 52.6 91.7 7.8 0.0
6/25/22 - 1000 87.9 25 47.2 60.8 ENE | 57 0.9 3.6 0.0 12.8 0.00 0.00 52.6 90.3 3.6 0.0
6/25/22 - 0900 80.1 35 50.1 60.7 NE | 49 0.3 2.2 0.0 13.0 0.00 0.00 52.6 85.0 2.7 0.0
6/25/22 - 0800 68.7 48 48.0 56.6 E | 99 0.2 1.9 0.0 13.1 0.00 0.00 52.6 77.4 2.7 0.0
6/25/22 - 0700 55.9 69 45.7 50.9 SSW | 202 0.8 2.3 0.0 13.0 0.00 0.00 52.6 61.4 2.7 0.0
6/25/22 - 0600 53.2 72 44.3 49.0 SSW | 203 1.2 2.6 0.0 12.6 0.00 0.00 52.6 59.5 2.7 0.0
6/25/22 - 0500 53.8 70 44.4 49.3 SSW | 200 1.1 2.7 0.0 12.6 0.00 0.00 53.3 59.5 2.7 0.0
6/25/22 - 0400 55.3 66 44.1 49.8 SSW | 202 1.3 2.2 0.0 12.6 0.00 0.00 54.1 59.5 2.6 0.0
6/25/22 - 0300 56.6 65 45.1 50.9 SSW | 198 1.3 2.6 0.0 12.6 0.00 0.00 55.6 59.5 2.6 0.0
6/25/22 - 0200 58.3 65 46.7 52.4 SSW | 212 1.4 2.5 0.0 12.6 0.00 0.00 57.3 59.5 2.5 0.0
6/25/22 - 0100 60.4 63 47.8 53.9 SSW | 204 1.4 3.2 0.0 12.6 0.00 0.00 51.7 95.0 16.4 0.0
6/25/22 - 0000 63.7 57 48.2 55.2 SSW | 196 1.3 3.7 0.0 12.6 0.00 0.00 51.7 95.0 16.4 0.0
6/24/22 - 2300 67.3 51 48.8 56.7 SSW | 203 1.3 4.5 0.0 12.6 0.00 0.00 51.7 95.0 16.4 0.0
6/24/22 - 2200 74.8 38 47.4 58.1 S | 184 2.4 6.1 0.0 12.7 0.00 0.00 51.7 95.0 16.4 0.0
6/24/22 - 2100 81.6 29 46.5 59.3 S | 174 2.4 10.8 0.0 12.7 0.00 0.00 51.7 95.0 16.4 0.0
6/24/22 - 2000 85.3 24 44.5 59.1 SW | 218 5.6 16.4 0.0 12.8 0.00 0.00 51.7 95.0 16.4 0.0
6/24/22 - 1900 86.9 23 45.1 59.7 WSW | 242 5.6 14.7 0.0 12.9 0.00 0.00 51.7 95.0 16.1 0.0
6/24/22 - 1800 88.7 24 47.0 60.8 WSW | 242 6.4 16.1 0.0 12.8 0.00 0.00 51.7 95.0 16.1 0.0
6/24/22 - 1700 90.9 22 46.4 60.9 WSW | 257 5.9 16.1 0.0 12.8 0.00 0.00 51.7 95.0 16.1 0.0
6/24/22 - 1600 92.5 22 47.6 61.7 WSW | 242 5.6 15.8 0.0 12.8 0.00 0.00 51.7 95.0 15.8 0.0
6/24/22 - 1500 93.2 23 50.5 63.1 SW | 234 5.7 13.6 0.0 12.8 0.00 0.00 51.7 95.0 13.6 0.0
6/24/22 - 1400 92.7 26 53.2 64.3 SW | 233 5.5 13.4 0.0 12.8 0.00 0.00 51.7 95.0 13.4 0.0
6/24/22 - 1300 93.9 21 47.8 62.0 W | 272 2.6 8.7 0.0 12.8 0.00 0.00 51.7 95.0 8.7 0.0
6/24/22 - 1200 92.3 21 46.9 61.3 SE | 144 1.7 6.2 0.0 12.8 0.00 0.00 51.7 94.8 6.2 0.0
6/24/22 - 1100 88.9 25 48.6 61.6 ENE | 61 1.9 5.7 0.0 12.8 0.00 0.00 51.7 90.7 5.7 0.0
6/24/22 - 1000 85.0 26 46.6 60.0 ENE | 58 1.1 3.3 0.0 12.9 0.00 0.00 51.7 87.8 3.8 0.0
6/24/22 - 0900 78.4 31 45.6 58.1 NNE | 23 0.5 3.8 0.0 13.0 0.00 0.00 51.7 82.2 3.8 0.0
6/24/22 - 0800 68.1 43 44.7 54.8 E | 82 0.1 1.6 0.0 13.1 0.00 0.00 51.7 75.8 3.2 0.0
6/24/22 - 0700 55.6 67 44.6 50.2 S | 185 0.3 2.2 0.0 13.0 0.00 0.00 51.7 61.4 3.2 0.0
6/24/22 - 0600 52.1 74 44.1 48.5 SSW | 201 1.3 2.7 0.0 12.6 0.00 0.00 51.7 57.8 3.2 0.0
6/24/22 - 0500 52.4 74 44.6 48.8 S | 183 1.0 2.5 0.0 12.6 0.00 0.00 51.9 57.8 3.2 0.0
6/24/22 - 0400 53.7 73 45.1 49.7 SSW | 192 0.8 2.3 0.0 12.6 0.00 0.00 52.6 57.8 3.2 0.0
6/24/22 - 0300 55.1 70 45.4 50.4 SSW | 213 1.4 2.8 0.0 12.6 0.00 0.00 54.2 57.8 3.2 0.0
6/24/22 - 0200 56.7 66 45.3 51.0 SSW | 196 1.3 3.2 0.0 12.6 0.00 0.00 55.7 57.8 3.2 0.0
6/24/22 - 0100 58.5 61 45.2 51.7 SSW | 202 1.2 3.2 0.0 12.6 0.00 0.00 55.0 91.8 21.7 0.0
6/24/22 - 0000 61.2 56 45.3 52.8 S | 190 1.3 3.0 0.0 12.6 0.00 0.00 55.0 91.8 21.7 0.0
6/23/22 - 2300 64.8 50 46.0 54.4 S | 183 1.1 4.6 0.0 12.7 0.00 0.00 55.0 91.8 21.7 0.0
6/23/22 - 2200 71.4 39 45.4 56.2 S | 182 1.9 6.6 0.0 12.7 0.00 0.00 55.0 91.8 21.7 0.0
6/23/22 - 2100 77.6 34 46.8 58.6 SSE | 166 1.8 6.5 0.0 12.7 0.00 0.00 55.0 91.8 21.7 0.0
6/23/22 - 2000 84.6 27 47.0 60.1 W | 259 2.0 11.4 0.0 12.8 0.00 0.00 55.0 91.8 21.7 0.0
6/23/22 - 1900 87.1 21 42.7 58.8 WSW | 238 4.2 10.7 0.0 12.9 0.00 0.00 55.0 91.8 21.7 0.0
6/23/22 - 1800 88.7 17 38.8 57.7 WSW | 238 5.5 14.5 0.0 12.8 0.00 0.00 55.0 91.8 21.7 0.0
6/23/22 - 1700 89.9 18 41.0 58.6 SW | 228 5.6 19.8 0.0 12.8 0.00 0.00 55.0 91.8 21.7 0.0
6/23/22 - 1600 90.1 18 40.5 58.5 SW | 234 5.5 20.1 0.0 12.8 0.00 0.00 55.0 91.8 21.7 0.0
6/23/22 - 1500 90.0 19 41.8 59.0 SW | 228 6.2 21.7 0.0 12.8 0.00 0.00 55.0 91.8 21.7 0.0
6/23/22 - 1400 89.6 21 44.6 60.0 SW | 234 4.9 21.4 0.0 12.8 0.00 0.00 55.0 91.8 21.4 0.0
6/23/22 - 1300 90.3 20 43.9 59.8 NNE | 16 3.2 12.2 0.0 12.8 0.00 0.00 55.0 91.8 12.6 0.0
6/23/22 - 1200 89.0 20 43.2 59.3 WSW | 245 4.3 12.6 0.0 12.8 0.00 0.00 55.0 91.0 12.6 0.0
6/23/22 - 1100 88.1 22 44.8 59.8 NNE | 19 2.0 10.4 0.0 12.8 0.00 0.00 55.0 90.9 10.4 0.0
6/23/22 - 1000 83.5 27 45.6 59.3 NNE | 22 1.4 5.3 0.0 12.9 0.00 0.00 55.0 86.7 7.3 0.0
6/23/22 - 0900 76.8 33 45.4 57.6 ESE | 117 1.2 5.9 0.0 13.0 0.00 0.00 55.0 80.5 7.3 0.0
6/23/22 - 0800 67.5 45 45.2 54.9 SE | 137 0.9 5.5 0.0 13.1 0.00 0.00 55.0 75.1 7.3 0.0
6/23/22 - 0700 56.7 64 44.7 50.7 SE | 141 0.3 2.1 0.0 12.9 0.00 0.00 55.0 75.1 7.3 0.0
6/23/22 - 0600 56.7 62 43.7 50.2 SSW | 204 0.9 3.0 0.0 12.6 0.00 0.00 55.4 75.1 7.3 0.0
6/23/22 - 0500 58.8 58 44.0 51.2 S | 186 0.9 3.4 0.0 12.6 0.00 0.00 57.4 75.1 7.3 0.0
Max 95.5 84 53.2 64.3 - 8.3 21.8 0.0 13.2 0.00 0.00 59.4 97.4 21.8 0.0
Avg 74.2 37 42.8 55.1 - 2.7 8.1 0.0 12.8 0.00 - - - - -
Min 48.1 11 28.5 43.5 - 0.1 1.6 0.0 12.6 0.00 0.00 47.5 54.6 2.5 0.0
Total - - - - - - - - - 0.00 - - - - -